Time;durP1;ratioP1;P1;durP2;ratioP2;P2;SDS_P1;SDS_P2;PMS_P1;PMS_P2;Temp;Humidity;BMP_temperature;BMP_pressure;BME280_temperature;BME280_humidity;BME280_pressure;Samples;Min_cycle;Max_cycle;Signal;HPM_P1;HPM_P2
2021/05/08 00:01:25;;;;;;;11.07;5.50;;;5.20;86.90;;;;;;5036623;28;20182;-88
2021/05/08 00:03:51;;;;;;;16.67;5.30;;;5.10;87.00;;;;;;5054505;28;20188;-88
2021/05/08 00:06:16;;;;;;;18.70;5.17;;;5.10;87.10;;;;;;5054022;28;20237;-88
2021/05/08 00:08:42;;;;;;;16.73;5.73;;;5.10;87.10;;;;;;5038694;28;20624;-87
2021/05/08 00:11:08;;;;;;;17.27;4.93;;;5.00;87.10;;;;;;5040112;28;20181;-88
2021/05/08 00:13:33;;;;;;;18.33;6.00;;;5.10;87.10;;;;;;5037601;28;20666;-87
2021/05/08 00:15:59;;;;;;;13.90;5.20;;;5.00;87.10;;;;;;5037079;28;20176;-87
2021/05/08 00:18:25;;;;;;;11.93;5.57;;;5.10;87.10;;;;;;5054903;28;20172;-87
2021/05/08 00:20:51;;;;;;;18.03;5.73;;;5.10;87.10;;;;;;5042481;28;20171;-86
2021/05/08 00:23:16;;;;;;;22.67;6.47;;;5.00;87.00;;;;;;5065945;28;20277;-87
2021/05/08 00:25:42;;;;;;;16.93;5.87;;;5.00;87.20;;;;;;5065053;28;20197;-87
2021/05/08 00:28:07;;;;;;;15.77;6.83;;;5.00;87.30;;;;;;5047112;28;20213;-87
2021/05/08 00:30:34;;;;;;;13.60;5.13;;;5.00;87.40;;;;;;5066518;28;20186;-86
2021/05/08 00:33:00;;;;;;;16.70;5.87;;;4.90;87.40;;;;;;5066705;28;20168;-87
2021/05/08 00:35:25;;;;;;;30.73;6.47;;;4.90;87.60;;;;;;5069908;28;20178;-86
2021/05/08 00:37:51;;;;;;;17.77;5.50;;;4.90;87.60;;;;;;5073008;28;20190;-86
2021/05/08 00:40:17;;;;;;;25.27;5.93;;;4.90;87.60;;;;;;5052850;28;20187;-86
2021/05/08 00:42:43;;;;;;;16.50;6.30;;;4.90;87.50;;;;;;5051679;28;20183;-87
2021/05/08 00:45:09;;;;;;;16.10;5.87;;;4.90;87.60;;;;;;5048345;28;20348;-87
2021/05/08 00:48:02;;;;;;;16.47;6.27;;;4.90;87.50;;;;;;5047418;28;20243;-87
2021/05/08 00:50:28;;;;;;;12.23;5.53;;;4.90;87.40;;;;;;5063870;28;20188;-87
2021/05/08 00:52:53;;;;;;;18.60;5.93;;;4.80;87.50;;;;;;5047269;28;20240;-87
2021/05/08 00:55:19;;;;;;;18.27;6.07;;;4.80;87.60;;;;;;5051779;28;20204;-87
2021/05/08 00:57:44;;;;;;;11.47;5.20;;;4.80;87.70;;;;;;5068607;28;20237;-87
2021/05/08 01:00:11;;;;;;;12.87;5.07;;;4.80;87.70;;;;;;5050170;28;20191;-87
2021/05/08 01:02:36;;;;;;;19.13;5.97;;;4.80;87.90;;;;;;5050787;28;20212;-87
2021/05/08 01:05:04;;;;;;;10.67;5.70;;;4.70;88.10;;;;;;5049132;28;20233;-87
2021/05/08 01:07:30;;;;;;;15.27;5.63;;;4.70;88.20;;;;;;5048940;28;20176;-87
2021/05/08 01:09:56;;;;;;;13.70;5.70;;;4.70;88.30;;;;;;5068127;28;20182;-87
2021/05/08 01:12:22;;;;;;;16.93;6.63;;;4.70;88.30;;;;;;5066544;28;20175;-87
2021/05/08 01:14:48;;;;;;;18.47;6.43;;;4.70;88.30;;;;;;5066747;28;20214;-87
2021/05/08 01:17:14;;;;;;;18.07;6.63;;;4.70;88.30;;;;;;5048825;28;20180;-87
2021/05/08 01:19:40;;;;;;;19.27;7.23;;;4.70;88.30;;;;;;5070528;28;20619;-86
2021/05/08 01:22:05;;;;;;;21.70;7.13;;;4.60;88.30;;;;;;5070724;28;20166;-86
2021/05/08 01:24:31;;;;;;;18.60;6.67;;;4.60;88.50;;;;;;5069896;28;20188;-87
2021/05/08 01:26:57;;;;;;;21.07;5.60;;;4.60;88.50;;;;;;5066904;28;20202;-86
2021/05/08 01:29:23;;;;;;;13.33;7.53;;;4.50;88.60;;;;;;5039443;28;20206;-86
2021/05/08 01:31:48;;;;;;;25.27;7.53;;;4.50;88.60;;;;;;5039176;28;20198;-87
2021/05/08 01:34:14;;;;;;;20.73;6.90;;;4.60;88.60;;;;;;5038266;28;20224;-86
2021/05/08 01:36:40;;;;;;;18.27;7.07;;;4.60;88.60;;;;;;5038055;28;20186;-86
2021/05/08 01:39:06;;;;;;;22.33;6.83;;;4.60;88.70;;;;;;5039185;28;20250;-87
2021/05/08 01:41:32;;;;;;;23.20;7.63;;;4.50;88.70;;;;;;5056433;28;20168;-86
2021/05/08 01:43:58;;;;;;;14.83;6.47;;;4.50;89.00;;;;;;5038230;28;20206;-86
2021/05/08 01:46:23;;;;;;;14.80;6.70;;;4.50;88.90;;;;;;5037471;28;20206;-86
2021/05/08 01:48:49;;;;;;;16.60;6.77;;;4.50;89.00;;;;;;5038251;28;20176;-86
2021/05/08 01:51:15;;;;;;;17.80;8.07;;;4.50;89.00;;;;;;5055920;28;20177;-87
2021/05/08 01:53:41;;;;;;;24.77;8.33;;;4.50;89.10;;;;;;5038244;28;20231;-87
2021/05/08 01:56:07;;;;;;;20.07;7.33;;;4.40;89.00;;;;;;5056095;28;20217;-87
2021/05/08 01:58:37;;;;;;;19.30;7.10;;;4.40;89.20;;;;;;5039596;28;20175;-86
2021/05/08 02:01:03;;;;;;;11.30;7.07;;;4.40;89.10;;;;;;5038847;28;20179;-87
2021/05/08 02:03:29;;;;;;;18.57;7.30;;;4.40;89.20;;;;;;5056617;28;20548;-87
2021/05/08 02:05:55;;;;;;;16.40;7.23;;;4.40;89.20;;;;;;5038573;28;20339;-87
2021/05/08 02:08:21;;;;;;;19.70;7.43;;;4.40;89.10;;;;;;5038881;28;20585;-87
2021/05/08 02:10:47;;;;;;;14.50;7.30;;;4.40;89.10;;;;;;5038844;28;20526;-87
2021/05/08 02:13:14;;;;;;;20.97;7.27;;;4.40;89.20;;;;;;5056448;28;20190;-87
2021/05/08 02:15:40;;;;;;;22.83;7.70;;;4.40;89.10;;;;;;5056418;28;20170;-87
2021/05/08 02:18:06;;;;;;;20.87;6.70;;;4.40;89.10;;;;;;5038748;28;20259;-87
2021/05/08 02:20:36;;;;;;;18.43;7.50;;;4.30;89.20;;;;;;5038103;28;20179;-87
2021/05/08 02:23:04;;;;;;;19.57;7.33;;;4.30;89.20;;;;;;5055958;28;20175;-87
2021/05/08 02:25:30;;;;;;;17.33;7.43;;;4.30;89.30;;;;;;5038215;28;20202;-87
2021/05/08 02:27:58;;;;;;;24.27;7.20;;;4.30;89.50;;;;;;5037889;28;20174;-87
2021/05/08 02:30:29;;;;;;;19.20;7.03;;;4.30;89.50;;;;;;5056162;28;20175;-87
2021/05/08 02:32:56;;;;;;;27.40;7.33;;;4.30;89.40;;;;;;5055817;28;20175;-87
2021/05/08 02:35:23;;;;;;;17.60;7.03;;;4.30;89.40;;;;;;5055188;28;20206;-86
2021/05/08 02:37:49;;;;;;;15.13;6.60;;;4.30;89.40;;;;;;5055962;28;20266;-87
2021/05/08 02:40:21;;;;;;;17.30;7.63;;;4.30;89.40;;;;;;5055897;28;20657;-87
2021/05/08 02:42:48;;;;;;;19.20;7.80;;;4.30;89.60;;;;;;5037969;28;20186;-87
2021/05/08 02:45:15;;;;;;;23.17;8.00;;;4.30;89.50;;;;;;5037628;28;20214;-87
2021/05/08 02:47:42;;;;;;;15.80;8.03;;;4.30;89.60;;;;;;5037645;28;20175;-87
2021/05/08 02:50:09;;;;;;;21.30;8.10;;;4.20;89.60;;;;;;5037049;28;20182;-86
2021/05/08 02:52:35;;;;;;;25.37;8.73;;;4.20;89.60;;;;;;5037539;28;20183;-87
2021/05/08 02:55:01;;;;;;;16.17;7.97;;;4.20;89.70;;;;;;5037528;28;20196;-87
2021/05/08 02:57:26;;;;;;;19.90;8.40;;;4.20;89.80;;;;;;5055249;28;20175;-87
2021/05/08 02:59:52;;;;;;;19.20;7.70;;;4.20;89.80;;;;;;5037773;28;20174;-86
2021/05/08 03:02:18;;;;;;;15.73;7.30;;;4.30;89.50;;;;;;5055851;28;20522;-87
2021/05/08 03:04:43;;;;;;;15.87;7.13;;;4.20;89.40;;;;;;5037729;28;20739;-87
2021/05/08 03:07:09;;;;;;;14.77;7.90;;;4.20;89.40;;;;;;5055484;28;20178;-87
2021/05/08 03:09:35;;;;;;;13.93;7.03;;;4.10;89.40;;;;;;5037755;28;20194;-87
2021/05/08 03:12:02;;;;;;;22.00;7.93;;;4.00;89.40;;;;;;5037242;28;20534;-87
2021/05/08 03:14:28;;;;;;;16.17;8.07;;;4.00;89.40;;;;;;5081902;23;20717;-83
2021/05/08 03:16:54;;;;;;;13.13;6.97;;;4.00;89.40;;;;;;5073915;28;20208;-83
2021/05/08 03:19:19;;;;;;;21.03;7.40;;;3.90;89.50;;;;;;5073636;28;20192;-84
2021/05/08 03:21:45;;;;;;;19.53;7.80;;;3.90;89.60;;;;;;5072312;28;20335;-84
2021/05/08 03:24:11;;;;;;;25.90;8.10;;;3.90;89.60;;;;;;5072297;28;20202;-83
2021/05/08 03:26:37;;;;;;;19.20;8.13;;;3.90;89.70;;;;;;5072117;28;20614;-83
2021/05/08 03:29:03;;;;;;;20.57;8.47;;;3.90;89.50;;;;;;5072278;28;20176;-82
2021/05/08 03:31:30;;;;;;;18.37;8.43;;;4.00;89.50;;;;;;5072140;28;20174;-82
2021/05/08 03:33:55;;;;;;;22.80;9.07;;;3.90;89.80;;;;;;5073658;28;20177;-82
2021/05/08 03:36:21;;;;;;;18.77;7.87;;;3.90;89.90;;;;;;5073494;28;20173;-83
2021/05/08 03:38:47;;;;;;;18.93;8.40;;;3.80;90.00;;;;;;5073580;28;20184;-83
2021/05/08 03:41:12;;;;;;;19.57;9.43;;;3.80;90.10;;;;;;5072019;28;20668;-82
2021/05/08 03:43:38;;;;;;;15.67;8.77;;;3.70;90.40;;;;;;5071984;28;20172;-85
2021/05/08 03:46:03;;;;;;;17.17;8.73;;;3.80;90.60;;;;;;5071865;28;20255;-83
2021/05/08 03:48:29;;;;;;;18.63;9.20;;;3.80;90.70;;;;;;5073203;28;20536;-83
2021/05/08 03:50:55;;;;;;;18.53;8.90;;;3.80;90.70;;;;;;5073208;28;20174;-83
2021/05/08 03:53:22;;;;;;;20.63;9.03;;;3.80;90.60;;;;;;5073163;28;20170;-83
2021/05/08 03:55:50;;;;;;;17.43;9.00;;;3.90;90.70;;;;;;5073039;28;20304;-84
2021/05/08 03:58:16;;;;;;;27.23;9.97;;;3.90;90.70;;;;;;5072073;28;20304;-83
2021/05/08 04:00:41;;;;;;;19.37;10.00;;;3.90;90.70;;;;;;5073160;28;20260;-82
2021/05/08 04:03:07;;;;;;;19.50;9.13;;;3.90;90.70;;;;;;5071846;28;20176;-83
2021/05/08 04:05:33;;;;;;;18.43;9.73;;;4.00;90.60;;;;;;5073006;28;20208;-83
2021/05/08 04:07:58;;;;;;;25.97;10.17;;;4.10;90.60;;;;;;5073072;28;20177;-84
2021/05/08 04:10:24;;;;;;;22.70;9.80;;;4.10;90.50;;;;;;5072716;28;20164;-83
2021/05/08 04:12:50;;;;;;;22.47;9.93;;;4.20;90.50;;;;;;5073093;28;20216;-84
2021/05/08 04:15:15;;;;;;;21.33;9.73;;;4.20;90.40;;;;;;5071700;28;20214;-83
2021/05/08 04:17:41;;;;;;;25.93;10.87;;;4.20;90.40;;;;;;5071730;28;20237;-83
2021/05/08 04:20:07;;;;;;;28.40;10.87;;;4.20;90.40;;;;;;5071646;28;20552;-83
2021/05/08 04:22:32;;;;;;;19.27;10.60;;;4.20;90.40;;;;;;5073174;28;20217;-83
2021/05/08 04:24:58;;;;;;;18.70;9.70;;;4.30;90.40;;;;;;5071530;28;20199;-83
2021/05/08 04:27:23;;;;;;;24.90;13.03;;;4.30;90.30;;;;;;5071640;28;20227;-83
2021/05/08 04:29:49;;;;;;;22.30;10.70;;;4.30;90.30;;;;;;5073009;28;20638;-83
2021/05/08 04:32:15;;;;;;;19.30;10.80;;;4.40;90.30;;;;;;5071543;28;20177;-83
2021/05/08 04:34:40;;;;;;;20.80;10.60;;;4.40;90.30;;;;;;5071477;28;20202;-83
2021/05/08 04:37:06;;;;;;;24.93;11.23;;;4.50;90.10;;;;;;5073115;28;20547;-83
2021/05/08 04:39:32;;;;;;;18.80;10.57;;;4.50;90.00;;;;;;5072733;28;20548;-83
2021/05/08 04:41:57;;;;;;;17.30;9.53;;;4.50;89.70;;;;;;5072938;28;20187;-83
2021/05/08 04:44:25;;;;;;;18.93;10.37;;;4.50;89.70;;;;;;5072627;28;20198;-82
2021/05/08 04:46:50;;;;;;;24.20;10.57;;;4.50;89.70;;;;;;5072769;28;20697;-83
2021/05/08 04:49:16;;;;;;;21.77;11.20;;;4.50;89.70;;;;;;5071572;28;20178;-83
2021/05/08 04:51:42;;;;;;;25.33;11.07;;;4.50;89.80;;;;;;5071416;28;20247;-83
2021/05/08 04:54:08;;;;;;;20.80;7.50;;;4.50;89.90;;;;;;5072741;28;20177;-84
2021/05/08 04:56:33;;;;;;;19.33;9.90;;;4.60;89.80;;;;;;5072626;28;20236;-83
2021/05/08 04:58:59;;;;;;;18.30;9.13;;;4.50;89.80;;;;;;5072581;28;20263;-83
2021/05/08 05:01:25;;;;;;;20.07;9.87;;;4.60;89.90;;;;;;5072789;28;20650;-82
2021/05/08 05:03:51;;;;;;;21.80;10.00;;;4.60;89.90;;;;;;5071195;28;20185;-83
2021/05/08 05:06:16;;;;;;;18.67;10.00;;;4.60;90.00;;;;;;5071134;28;20202;-83
2021/05/08 05:08:42;;;;;;;20.20;9.67;;;4.70;90.10;;;;;;5071170;28;20188;-83
2021/05/08 05:11:08;;;;;;;21.23;11.10;;;4.80;90.10;;;;;;5072790;28;20173;-83
2021/05/08 05:13:33;;;;;;;16.43;10.07;;;4.90;90.10;;;;;;5071152;28;20570;-83
2021/05/08 05:15:59;;;;;;;23.17;10.73;;;4.90;89.90;;;;;;5072387;28;20265;-83
2021/05/08 05:18:24;;;;;;;19.43;9.57;;;5.00;89.70;;;;;;5072465;28;20178;-83
2021/05/08 05:20:50;;;;;;;17.17;10.73;;;5.10;89.80;;;;;;5071964;28;20248;-83
2021/05/08 05:23:15;;;;;;;28.40;10.20;;;5.20;90.00;;;;;;5074669;28;20274;-84
2021/05/08 05:25:41;;;;;;;17.20;10.60;;;5.30;89.90;;;;;;5076020;28;20338;-83
2021/05/08 05:28:28;;;;;;;21.70;10.53;;;5.50;90.00;;;;;;5074495;28;20190;-84
2021/05/08 05:30:55;;;;;;;23.67;9.60;;;5.70;90.10;;;;;;5076019;28;20246;-82
2021/05/08 05:33:21;;;;;;;22.47;10.03;;;5.70;89.40;;;;;;5075795;28;20182;-83
2021/05/08 05:35:48;;;;;;;26.77;10.70;;;5.80;89.40;;;;;;5074317;28;20232;-83
2021/05/08 05:38:14;;;;;;;13.50;9.87;;;5.80;89.30;;;;;;5074474;28;20182;-83
2021/05/08 05:40:39;;;;;;;20.53;10.17;;;5.80;88.70;;;;;;5077313;28;20198;-83
2021/05/08 05:43:05;;;;;;;29.73;10.97;;;5.70;88.70;;;;;;5075470;28;20207;-82
2021/05/08 05:45:30;;;;;;;17.63;8.67;;;5.70;88.70;;;;;;5074278;28;20302;-82
2021/05/08 05:47:58;;;;;;;17.93;9.57;;;5.80;88.80;;;;;;5074526;28;20226;-82
2021/05/08 05:50:25;;;;;;;16.73;9.30;;;5.80;88.60;;;;;;5075824;28;20536;-82
2021/05/08 05:52:54;;;;;;;16.37;9.57;;;5.90;88.90;;;;;;5074684;28;20171;-82
2021/05/08 05:55:21;;;;;;;19.87;9.50;;;5.90;88.60;;;;;;5075740;28;20191;-83
2021/05/08 05:57:47;;;;;;;17.13;9.80;;;6.10;89.00;;;;;;5074092;28;20270;-83
2021/05/08 06:00:13;;;;;;;16.10;9.63;;;6.20;88.90;;;;;;5075485;28;20271;-83
2021/05/08 06:02:39;;;;;;;14.93;9.23;;;6.20;88.70;;;;;;5074142;28;20646;-83
2021/05/08 06:05:05;;;;;;;24.13;9.97;;;6.30;88.70;;;;;;5075405;28;20235;-83
2021/05/08 06:07:30;;;;;;;24.37;9.43;;;6.30;87.90;;;;;;5075301;28;20179;-82
2021/05/08 06:09:56;;;;;;;16.97;7.90;;;6.30;88.10;;;;;;5074043;28;20214;-83
2021/05/08 06:12:22;;;;;;;17.13;9.17;;;6.40;88.00;;;;;;5075109;28;20175;-83
2021/05/08 06:14:47;;;;;;;20.83;8.67;;;6.40;87.70;;;;;;5073777;28;20215;-83
2021/05/08 06:17:13;;;;;;;20.87;8.47;;;6.50;87.90;;;;;;5075678;28;20171;-82
2021/05/08 06:19:39;;;;;;;18.50;8.13;;;6.60;87.80;;;;;;5075336;28;20198;-83
2021/05/08 06:22:04;;;;;;;17.67;8.17;;;6.80;88.20;;;;;;5073633;28;20292;-83
2021/05/08 06:24:30;;;;;;;15.93;7.80;;;6.80;87.30;;;;;;5073829;28;20628;-83
2021/05/08 06:26:55;;;;;;;20.53;9.03;;;6.80;86.90;;;;;;5075024;28;20703;-83
2021/05/08 06:29:21;;;;;;;20.63;8.00;;;6.90;87.70;;;;;;5075175;28;20283;-82
2021/05/08 06:31:47;;;;;;;17.63;8.67;;;7.00;86.70;;;;;;5074833;28;20537;-82
2021/05/08 06:34:12;;;;;;;14.07;7.00;;;7.00;87.00;;;;;;5074900;28;20193;-83
2021/05/08 06:36:38;;;;;;;21.07;7.70;;;7.00;86.30;;;;;;5074894;28;20171;-83
2021/05/08 06:39:04;;;;;;;15.60;7.87;;;7.10;86.30;;;;;;5074853;28;20179;-82
2021/05/08 06:41:30;;;;;;;14.57;7.87;;;7.10;86.00;;;;;;5074850;28;20173;-82
2021/05/08 06:43:55;;;;;;;17.20;8.13;;;7.20;86.00;;;;;;5073314;28;20668;-82
2021/05/08 06:46:21;;;;;;;16.83;8.53;;;7.30;86.30;;;;;;5074714;28;20197;-83
2021/05/08 06:48:47;;;;;;;16.40;7.07;;;7.40;86.40;;;;;;5074533;28;20197;-82
2021/05/08 06:51:12;;;;;;;21.57;8.67;;;7.50;85.60;;;;;;5074604;28;20172;-83
2021/05/08 06:53:38;;;;;;;13.87;7.17;;;7.50;85.60;;;;;;5074375;28;20193;-83
2021/05/08 06:56:04;;;;;;;16.63;7.10;;;7.50;84.00;;;;;;5074148;28;20198;-83
2021/05/08 06:58:29;;;;;;;16.83;7.27;;;7.60;84.60;;;;;;5074036;28;20615;-83
2021/05/08 07:00:55;;;;;;;25.07;7.20;;;7.70;83.60;;;;;;5074052;28;20213;-83
2021/05/08 07:03:21;;;;;;;13.97;6.23;;;7.80;84.50;;;;;;5074102;28;20170;-83
2021/05/08 07:05:47;;;;;;;26.37;6.83;;;7.90;83.70;;;;;;5072493;28;20207;-83
2021/05/08 07:08:12;;;;;;;14.83;6.83;;;7.90;83.00;;;;;;5074059;28;20170;-82
2021/05/08 07:10:52;;;;;;;14.27;6.40;;;7.90;83.00;;;;;;5074262;28;20174;-82
2021/05/08 07:13:20;;;;;;;14.60;6.00;;;8.00;83.80;;;;;;5074269;28;20292;-82
2021/05/08 07:15:45;;;;;;;21.40;5.43;;;7.90;81.00;;;;;;5072334;28;20227;-82
2021/05/08 07:18:11;;;;;;;9.43;5.23;;;7.90;82.10;;;;;;5073364;28;20182;-83
2021/05/08 07:20:39;;;;;;;14.67;6.30;;;8.10;82.40;;;;;;5072697;28;20179;-83
2021/05/08 07:23:06;;;;;;;14.03;4.87;;;8.30;83.70;;;;;;5072405;28;20201;-83
2021/05/08 07:25:32;;;;;;;13.50;5.00;;;8.40;82.50;;;;;;5073499;28;20679;-82
2021/05/08 07:28:19;;;;;;;15.17;6.53;;;8.40;80.50;;;;;;5072264;28;20179;-83
2021/05/08 07:30:46;;;;;;;13.53;5.57;;;8.70;82.90;;;;;;5073634;28;20177;-83
2021/05/08 07:33:14;;;;;;;10.50;5.57;;;8.60;81.40;;;;;;5072410;28;20542;-83
2021/05/08 07:35:40;;;;;;;14.13;5.23;;;8.60;80.30;;;;;;5073513;28;20191;-82
2021/05/08 07:38:06;;;;;;;13.83;5.07;;;8.50;79.10;;;;;;5072799;28;20175;-82
2021/05/08 07:40:33;;;;;;;17.53;3.90;;;8.50;78.20;;;;;;5073715;28;20748;-82
2021/05/08 07:42:59;;;;;;;20.73;4.80;;;8.40;78.40;;;;;;5072958;28;20185;-82
2021/05/08 07:45:26;;;;;;;9.90;4.97;;;8.70;80.10;;;;;;5072388;28;20636;-83
2021/05/08 07:47:53;;;;;;;12.30;5.27;;;8.90;79.30;;;;;;5072127;28;20175;-83
2021/05/08 07:50:19;;;;;;;18.57;5.23;;;8.90;78.60;;;;;;5072100;28;20171;-82
2021/05/08 07:52:44;;;;;;;15.00;3.87;;;8.70;78.00;;;;;;5073813;28;20220;-82
2021/05/08 07:55:10;;;;;;;12.87;3.83;;;8.70;75.80;;;;;;5073709;28;20187;-82
2021/05/08 07:57:40;;;;;;;14.77;4.47;;;8.70;75.50;;;;;;5072404;28;20179;-82
2021/05/08 08:00:07;;;;;;;17.43;4.27;;;8.70;76.70;;;;;;5073436;28;20171;-82
2021/05/08 08:02:34;;;;;;;11.37;3.80;;;8.90;77.50;;;;;;5072334;28;20171;-82
2021/05/08 08:05:01;;;;;;;11.03;3.73;;;8.90;75.20;;;;;;5071755;28;20191;-82
2021/05/08 08:07:27;;;;;;;14.73;5.10;;;8.80;76.80;;;;;;5073364;28;20651;-82
2021/05/08 08:09:52;;;;;;;15.13;4.27;;;8.90;77.20;;;;;;5071816;28;20175;-82
2021/05/08 08:12:18;;;;;;;21.13;4.47;;;9.10;75.90;;;;;;5071886;28;20175;-82
2021/05/08 08:14:44;;;;;;;16.03;4.57;;;9.20;77.10;;;;;;5071645;28;20212;-82
2021/05/08 08:17:09;;;;;;;19.90;5.07;;;9.20;75.30;;;;;;5073125;28;20262;-82
2021/05/08 08:19:35;;;;;;;11.20;4.13;;;9.20;73.50;;;;;;5073195;28;20720;-82
2021/05/08 08:22:00;;;;;;;14.53;4.50;;;9.20;74.90;;;;;;5071827;28;20179;-82
2021/05/08 08:24:26;;;;;;;13.60;3.60;;;9.30;74.20;;;;;;5073222;28;20191;-82
2021/05/08 08:26:52;;;;;;;24.13;4.13;;;9.40;75.60;;;;;;5071724;28;20202;-81
2021/05/08 08:29:17;;;;;;;12.77;3.40;;;9.70;73.60;;;;;;5071924;28;20296;-82
2021/05/08 08:31:44;;;;;;;12.47;3.80;;;10.00;73.20;;;;;;5073005;28;20217;-82
2021/05/08 08:34:10;;;;;;;10.97;3.73;;;9.90;73.30;;;;;;5071743;28;20198;-82
2021/05/08 08:36:35;;;;;;;8.23;3.27;;;10.00;72.80;;;;;;5073219;28;20175;-82
2021/05/08 08:39:03;;;;;;;9.77;3.10;;;10.30;74.10;;;;;;5075896;28;20673;-84
2021/05/08 08:41:29;;;;;;;17.87;3.70;;;10.10;70.30;;;;;;5074378;28;20221;-82
2021/05/08 08:43:54;;;;;;;13.37;3.40;;;9.90;66.30;;;;;;5072985;28;20177;-82
2021/05/08 08:46:20;;;;;;;10.20;3.73;;;10.00;67.40;;;;;;5073122;28;20638;-82
2021/05/08 08:48:46;;;;;;;6.80;2.80;;;10.10;67.80;;;;;;5072690;28;20163;-82
2021/05/08 08:51:15;;;;;;;13.10;4.63;;;10.20;68.10;;;;;;5072763;28;20308;-82
2021/05/08 08:53:40;;;;;;;12.20;4.43;;;10.20;68.80;;;;;;5072786;28;20173;-82
2021/05/08 08:56:06;;;;;;;7.53;3.03;;;10.10;69.00;;;;;;5075534;28;20265;-82
2021/05/08 08:58:36;;;;;;;5.30;2.83;;;10.20;69.40;;;;;;5076454;28;20202;-82
2021/05/08 09:01:03;;;;;;;12.67;3.20;;;10.30;69.00;;;;;;5076418;28;20263;-82
2021/05/08 09:03:30;;;;;;;12.63;3.43;;;10.30;67.80;;;;;;5076541;28;20544;-82
2021/05/08 09:05:58;;;;;;;6.17;3.00;;;10.30;67.80;;;;;;5074737;28;20207;-82
2021/05/08 09:08:24;;;;;;;13.50;3.40;;;10.50;68.90;;;;;;5075811;28;20623;-82
2021/05/08 09:10:51;;;;;;;6.53;3.10;;;10.50;67.40;;;;;;5076765;28;20175;-82
2021/05/08 09:13:20;;;;;;;14.10;3.40;;;10.60;67.90;;;;;;5075979;28;20164;-82
2021/05/08 09:15:47;;;;;;;8.77;3.37;;;10.70;67.00;;;;;;5158721;23;20695;-89
2021/05/08 09:18:35;;;;;;;10.47;3.57;;;10.70;65.90;;;;;;5075033;28;20180;-89
2021/05/08 09:21:01;;;;;;;8.40;3.30;;;10.60;64.70;;;;;;5075171;28;20178;-88
2021/05/08 09:23:39;;;;;;;5.83;2.70;;;10.90;68.90;;;;;;5076188;28;20167;-89
2021/05/08 09:26:07;;;;;;;13.10;3.53;;;10.90;62.30;;;;;;5075144;28;20203;-89
2021/05/08 09:28:36;;;;;;;12.07;4.13;;;10.80;62.60;;;;;;5074875;28;20228;-89
2021/05/08 09:31:03;;;;;;;8.83;4.03;;;11.10;63.10;;;;;;5074834;28;20305;-89
2021/05/08 09:33:29;;;;;;;14.17;3.73;;;11.20;64.30;;;;;;5075991;28;20179;-89
2021/05/08 09:36:05;;;;;;;7.00;2.97;;;11.30;65.40;;;;;;5075957;28;20195;-89
2021/05/08 09:38:33;;;;;;;11.30;3.67;;;10.90;63.00;;;;;;5074748;28;20171;-89
2021/05/08 09:40:59;;;;;;;12.40;3.80;;;10.90;65.10;;;;;;5074610;28;20171;-89
2021/05/08 09:43:25;;;;;;;10.97;3.10;;;11.00;61.50;;;;;;5075812;28;20175;-89
2021/05/08 09:45:54;;;;;;;7.23;3.53;;;10.90;62.90;;;;;;5074333;28;20612;-89
2021/05/08 09:48:28;;;;;;;10.63;3.77;;;11.10;63.60;;;;;;5074822;28;20182;-88
2021/05/08 09:51:13;;;;;;;9.63;3.20;;;11.50;64.40;;;;;;5074446;28;20219;-89
2021/05/08 09:53:38;;;;;;;9.90;2.80;;;11.30;61.50;;;;;;5074855;28;20567;-89
2021/05/08 09:56:04;;;;;;;6.33;3.20;;;11.40;62.20;;;;;;5074373;28;20215;-88
2021/05/08 09:58:31;;;;;;;14.63;5.10;;;11.40;63.00;;;;;;5075518;28;20171;-89
2021/05/08 10:00:57;;;;;;;11.60;4.03;;;11.80;61.70;;;;;;5074277;28;20211;-88
2021/05/08 10:03:23;;;;;;;8.97;4.20;;;11.70;58.50;;;;;;5074215;28;20667;-88
2021/05/08 10:06:02;;;;;;;6.30;2.90;;;11.70;60.70;;;;;;5073791;28;20242;-89
2021/05/08 10:08:28;;;;;;;8.53;3.40;;;11.90;62.40;;;;;;5073766;28;20178;-89
2021/05/08 10:10:57;;;;;;;6.90;3.50;;;11.90;59.40;;;;;;5074365;28;20225;-89
2021/05/08 10:13:24;;;;;;;8.53;3.87;;;11.60;58.50;;;;;;5073972;28;20175;-89
2021/05/08 10:15:50;;;;;;;7.00;3.47;;;11.80;60.80;;;;;;5073683;28;20214;-89
2021/05/08 10:18:16;;;;;;;5.23;3.27;;;11.80;58.40;;;;;;5073901;28;20183;-89
2021/05/08 10:20:42;;;;;;;9.13;3.60;;;11.70;57.10;;;;;;5073783;28;20225;-88
2021/05/08 10:23:12;;;;;;;9.07;3.17;;;11.60;58.30;;;;;;5073915;28;20247;-88
2021/05/08 10:25:40;;;;;;;6.10;3.00;;;11.60;56.30;;;;;;5074787;28;20199;-89
2021/05/08 10:28:06;;;;;;;9.50;3.63;;;11.70;58.90;;;;;;5073720;28;20263;-89
2021/05/08 10:30:38;;;;;;;4.37;3.03;;;12.00;60.30;;;;;;5073632;28;20267;-89
2021/05/08 10:33:24;;;;;;;5.23;3.27;;;12.20;56.10;;;;;;5074839;28;20167;-89
2021/05/08 10:35:51;;;;;;;7.20;3.20;;;12.20;58.20;;;;;;5073498;28;20198;-89
2021/05/08 10:38:23;;;;;;;8.30;3.57;;;12.50;57.80;;;;;;5073492;28;20262;-89
2021/05/08 10:40:54;;;;;;;10.37;4.43;;;12.40;53.40;;;;;;5073601;28;20179;-89
2021/05/08 10:43:53;;;;;;;8.00;4.00;;;12.40;56.40;;;;;;5073665;28;20266;-89
2021/05/08 10:46:20;;;;;;;8.10;3.77;;;12.30;55.80;;;;;;5073269;28;20582;-89
2021/05/08 10:49:12;;;;;;;10.40;3.87;;;12.50;54.80;;;;;;5073269;28;20179;-89
2021/05/08 10:51:57;;;;;;;9.70;4.00;;;12.40;55.40;;;;;;5074466;28;20172;-89
2021/05/08 10:54:44;;;;;;;7.27;3.57;;;12.30;54.70;;;;;;5073107;28;20545;-89
2021/05/08 10:57:15;;;;;;;7.67;3.73;;;12.80;52.50;;;;;;5074602;28;20624;-89
2021/05/08 11:00:07;;;;;;;8.53;4.27;;;12.80;53.70;;;;;;5073272;28;20221;-89
2021/05/08 11:02:42;;;;;;;6.27;3.30;;;12.90;54.60;;;;;;5072988;28;20185;-89
2021/05/08 11:05:21;;;;;;;7.47;3.90;;;12.80;54.90;;;;;;5074208;28;20206;-89
2021/05/08 11:07:46;;;;;;;8.60;4.10;;;13.00;54.90;;;;;;5072933;28;20178;-89
2021/05/08 11:10:30;;;;;;;5.23;3.80;;;12.90;52.80;;;;;;5074116;28;20168;-89
2021/05/08 11:13:14;;;;;;;8.10;4.43;;;12.90;55.20;;;;;;5072893;28;20705;-89
2021/05/08 11:15:55;;;;;;;9.40;4.10;;;13.20;53.40;;;;;;5072779;28;20336;-89
2021/05/08 11:18:43;;;;;;;8.50;3.50;;;13.40;53.10;;;;;;5073500;28;20182;-89
2021/05/08 11:21:11;;;;;;;7.73;4.50;;;13.30;51.20;;;;;;5073160;28;20194;-89
2021/05/08 11:23:50;;;;;;;8.47;4.10;;;13.20;52.10;;;;;;5073911;28;20167;-89
2021/05/08 11:26:24;;;;;;;8.43;3.83;;;13.50;52.20;;;;;;5073937;28;20682;-89
2021/05/08 11:29:00;;;;;;;9.13;3.87;;;13.70;51.60;;;;;;5072595;28;20661;-89
2021/05/08 11:31:33;;;;;;;5.33;3.20;;;13.70;51.30;;;;;;5073747;28;20228;-88
2021/05/08 11:34:14;;;;;;;9.73;5.13;;;13.50;50.10;;;;;;5072535;28;20178;-88
2021/05/08 11:36:52;;;;;;;10.03;4.23;;;13.40;50.70;;;;;;5073601;28;20187;-89
2021/05/08 11:39:43;;;;;;;10.77;3.87;;;13.30;50.30;;;;;;5072433;28;20194;-89
2021/05/08 11:42:17;;;;;;;7.27;4.10;;;13.30;53.30;;;;;;5073946;28;20167;-91
2021/05/08 11:45:00;;;;;;;5.53;3.70;;;13.40;49.40;;;;;;5072466;28;20199;-91
2021/05/08 11:47:29;;;;;;;6.60;3.87;;;13.20;50.20;;;;;;5073834;28;20245;-91
2021/05/08 11:50:13;;;;;;;7.70;3.50;;;13.30;51.30;;;;;;5073512;28;20609;-89
2021/05/08 11:52:43;;;;;;;7.33;4.20;;;13.50;50.00;;;;;;5073452;28;20155;-89
2021/05/08 11:55:18;;;;;;;6.93;4.33;;;13.40;48.60;;;;;;5073591;28;20654;-91
2021/05/08 11:57:50;;;;;;;9.00;4.10;;;13.40;51.30;;;;;;5072261;28;20171;-91
2021/05/08 12:00:17;;;;;;;8.17;3.97;;;13.40;48.60;;;;;;5072534;28;20171;-89
2021/05/08 12:02:43;;;;;;;10.23;4.17;;;13.20;50.10;;;;;;5072456;28;20224;-91
2021/05/08 12:05:09;;;;;;;5.97;3.60;;;13.50;48.60;;;;;;5073131;28;20217;-89
2021/05/08 12:07:44;;;;;;;7.30;4.43;;;13.80;48.10;;;;;;5073217;28;20164;-89
2021/05/08 12:10:14;;;;;;;9.03;4.10;;;13.90;48.10;;;;;;5072070;28;20171;-89
2021/05/08 12:12:49;;;;;;;6.53;4.17;;;13.90;46.40;;;;;;5073097;28;20163;-91
2021/05/08 12:15:23;;;;;;;5.73;3.77;;;14.00;48.00;;;;;;5072788;28;20207;-91
2021/05/08 12:17:57;;;;;;;6.23;3.90;;;13.80;47.20;;;;;;5072327;28;20175;-89
2021/05/08 12:20:45;;;;;;;5.80;3.93;;;13.80;47.70;;;;;;5071846;28;20160;-89
2021/05/08 12:23:12;;;;;;;6.80;3.93;;;13.80;45.20;;;;;;5072108;28;20185;-89
2021/05/08 12:25:38;;;;;;;6.73;3.40;;;13.80;46.80;;;;;;5071942;28;20671;-89
2021/05/08 12:28:23;;;;;;;6.90;3.93;;;13.70;46.80;;;;;;5071619;28;20181;-90
2021/05/08 12:30:50;;;;;;;7.10;3.50;;;13.80;46.30;;;;;;5076074;28;20178;-89
2021/05/08 12:33:22;;;;;;;9.80;4.57;;;14.00;45.70;;;;;;5077374;28;20167;-89
2021/05/08 12:35:50;;;;;;;6.17;3.73;;;14.30;45.70;;;;;;5075828;28;20210;-89
2021/05/08 12:38:25;;;;;;;7.07;3.67;;;14.40;47.30;;;;;;5075978;28;20163;-89
2021/05/08 12:40:51;;;;;;;15.00;3.83;;;14.50;43.80;;;;;;5075648;28;20662;-89
2021/05/08 12:43:31;;;;;;;5.87;3.60;;;14.50;44.00;;;;;;5076763;28;20571;-89
2021/05/08 12:46:00;;;;;;;8.77;3.90;;;14.10;42.20;;;;;;5075740;28;20262;-90
2021/05/08 12:48:40;;;;;;;8.43;3.63;;;14.00;42.50;;;;;;5075430;28;20182;-90
2021/05/08 12:51:25;;;;;;;7.10;4.00;;;14.10;44.30;;;;;;5075406;28;20189;-89